Time;durP1;ratioP1;P1;durP2;ratioP2;P2;SDS_P1;SDS_P2;PMS_P1;PMS_P2;Temp;Humidity;BMP_temperature;BMP_pressure;BME280_temperature;BME280_humidity;BME280_pressure;Samples;Min_cycle;Max_cycle;Signal;HPM_P1;HPM_P2
2023/05/08 00:01:55;;;;;;;4.07;3.67;;;;;;;20.92;59.56;97738.75;4954614;28;20211;-27
2023/05/08 00:04:22;;;;;;;3.83;3.43;;;;;;;20.92;59.65;97742.19;4951735;29;20675;-28
2023/05/08 00:06:50;;;;;;;3.50;3.20;;;;;;;20.91;59.82;97740.47;4954044;28;20204;-27
2023/05/08 00:09:16;;;;;;;3.73;3.33;;;;;;;20.90;60.00;97741.25;4953926;28;20232;-27
2023/05/08 00:11:43;;;;;;;4.20;3.40;;;;;;;20.90;59.76;97743.81;4954447;28;20291;-27
2023/05/08 00:14:10;;;;;;;4.23;3.43;;;;;;;20.91;60.16;97744.69;4953768;28;20204;-27
2023/05/08 00:16:36;;;;;;;3.50;3.20;;;;;;;20.92;59.68;97743.88;4952273;28;20204;-28
2023/05/08 00:19:03;;;;;;;3.77;3.10;;;;;;;20.86;59.48;97736.00;4953770;28;20718;-27
2023/05/08 00:21:30;;;;;;;3.60;3.30;;;;;;;20.92;59.74;97746.44;4952941;29;21275;-27
2023/05/08 00:23:56;;;;;;;3.53;3.17;;;;;;;20.92;59.69;97757.53;4954074;28;20307;-27
2023/05/08 00:26:23;;;;;;;3.57;3.27;;;;;;;20.92;59.52;97754.09;4953509;29;20574;-27
2023/05/08 00:28:49;;;;;;;3.60;3.30;;;;;;;20.91;60.17;97755.78;4953857;28;20650;-27
2023/05/08 00:31:16;;;;;;;3.87;3.13;;;;;;;20.93;59.89;97761.81;4953881;29;20200;-27
2023/05/08 00:33:42;;;;;;;4.03;3.40;;;;;;;20.88;59.29;97757.38;4953709;28;20209;-27
2023/05/08 00:36:09;;;;;;;3.60;3.30;;;;;;;20.93;59.43;97764.38;4964877;28;20295;-27
2023/05/08 00:38:35;;;;;;;3.27;2.97;;;;;;;20.94;59.63;97767.81;4953760;28;20208;-28
2023/05/08 00:41:02;;;;;;;3.63;3.33;;;;;;;20.94;59.81;97773.78;4953531;28;20246;-28
2023/05/08 00:43:29;;;;;;;3.77;3.47;;;;;;;20.95;59.34;97778.09;4953412;28;20662;-27
2023/05/08 00:45:56;;;;;;;3.87;3.47;;;;;;;20.95;59.39;97779.78;4953794;28;20202;-27
2023/05/08 00:48:22;;;;;;;3.53;3.23;;;;;;;20.94;59.41;97776.34;4953629;29;20656;-28
2023/05/08 00:50:49;;;;;;;3.40;3.10;;;;;;;20.92;59.47;97775.41;4952680;29;20200;-27
2023/05/08 00:53:16;;;;;;;3.00;2.80;;;;;;;20.96;59.71;97789.22;4952452;29;20246;-28
2023/05/08 00:55:43;;;;;;;3.50;3.20;;;;;;;20.95;59.58;97782.34;4952039;29;20208;-28
2023/05/08 00:58:10;;;;;;;3.30;3.00;;;;;;;20.95;59.45;97780.66;4936811;29;20211;-27
2023/05/08 01:00:36;;;;;;;3.00;2.80;;;;;;;20.96;59.56;97786.66;4948430;29;20226;-27
2023/05/08 01:03:03;;;;;;;3.40;3.10;;;;;;;20.96;59.39;97794.31;4953892;28;20648;-28
2023/05/08 01:05:29;;;;;;;3.60;3.30;;;;;;;20.95;59.45;97796.00;4950943;28;20204;-28
2023/05/08 01:07:56;;;;;;;3.60;3.30;;;;;;;20.95;59.23;97795.09;4953108;28;20196;-28
2023/05/08 01:10:22;;;;;;;3.87;3.47;;;;;;;20.95;59.34;97796.00;4953021;28;20235;-27
2023/05/08 01:12:53;;;;;;;3.90;3.43;;;;;;;20.96;59.42;97797.72;4934580;29;20196;-27
2023/05/08 01:15:30;;;;;;;3.33;3.00;;;;;;;20.96;59.54;97802.81;4953192;28;20241;-28
2023/05/08 01:18:03;;;;;;;3.27;2.97;;;;;;;20.96;59.29;97802.81;4948173;29;20204;-28
2023/05/08 01:20:35;;;;;;;3.40;3.10;;;;;;;20.96;59.45;97804.53;4953234;28;20224;-28
2023/05/08 01:23:29;;;;;;;3.13;2.83;;;;;;;20.95;59.32;97801.09;4953238;28;20504;-27
2023/05/08 01:26:23;;;;;;;3.50;3.20;;;;;;;20.95;59.21;97805.31;4948261;29;20290;-28
2023/05/08 01:29:18;;;;;;;3.30;3.03;;;;;;;20.96;59.30;97813.06;4952143;28;20228;-28
2023/05/08 01:32:17;;;;;;;3.70;3.40;;;;;;;20.95;59.53;97808.78;4953522;29;20665;-28
2023/05/08 01:34:49;;;;;;;3.50;3.20;;;;;;;20.95;59.40;97808.78;4949029;29;20196;-27
2023/05/08 01:37:17;;;;;;;4.43;3.27;;;;;;;20.90;59.38;97807.69;4951761;29;20200;-28
2023/05/08 01:39:44;;;;;;;3.40;3.10;;;;;;;20.95;59.43;97816.44;4951379;28;20259;-27
2023/05/08 01:42:20;;;;;;;3.60;3.30;;;;;;;20.95;59.28;97813.88;4951114;29;20223;-27
2023/05/08 01:44:50;;;;;;;3.43;3.13;;;;;;;20.92;59.52;97811.19;4951331;29;20195;-28
2023/05/08 01:47:16;;;;;;;3.97;3.63;;;;;;;20.95;59.34;97813.88;4949486;29;20203;-27
2023/05/08 01:49:44;;;;;;;3.60;3.30;;;;;;;20.94;59.22;97812.13;4935236;29;20594;-28
2023/05/08 01:52:17;;;;;;;3.43;3.13;;;;;;;20.89;59.41;97808.50;4950793;28;20283;-27
2023/05/08 01:55:06;;;;;;;3.20;2.90;;;;;;;20.94;59.29;97819.78;4966917;28;20251;-27
2023/05/08 01:57:35;;;;;;;3.63;3.33;;;;;;;20.95;59.63;97820.66;4966465;28;20659;-27
2023/05/08 02:00:02;;;;;;;4.00;3.30;;;;;;;20.94;59.31;97814.66;4935406;29;20220;-28
2023/05/08 02:02:29;;;;;;;3.10;2.87;;;;;;;20.94;59.32;97817.22;4951812;28;20232;-27
2023/05/08 02:04:55;;;;;;;3.37;3.13;;;;;;;20.95;59.04;97818.09;4935052;29;20200;-27
2023/05/08 02:07:22;;;;;;;3.40;3.10;;;;;;;20.94;59.34;97824.00;4951918;28;20239;-27
2023/05/08 02:09:48;;;;;;;3.13;2.83;;;;;;;20.91;58.96;97817.13;4935171;29;20575;-28
2023/05/08 02:12:15;;;;;;;3.63;3.30;;;;;;;20.91;59.30;97816.22;4934676;29;20218;-28
2023/05/08 02:14:42;;;;;;;3.00;2.80;;;;;;;20.92;59.21;97820.50;4950816;28;20658;-28
2023/05/08 02:17:09;;;;;;;3.70;3.40;;;;;;;20.94;59.50;97822.34;4934670;29;20204;-28
2023/05/08 02:19:35;;;;;;;3.60;3.30;;;;;;;20.95;59.27;97825.78;4951695;28;20219;-28
2023/05/08 02:22:02;;;;;;;3.20;2.90;;;;;;;20.94;59.46;97827.44;4945744;28;20235;-28
2023/05/08 02:24:29;;;;;;;3.20;3.00;;;;;;;20.94;59.25;97826.56;4936915;29;20578;-27
2023/05/08 02:26:55;;;;;;;3.23;2.97;;;;;;;20.84;59.28;97807.47;4953566;29;20255;-27
2023/05/08 02:29:22;;;;;;;3.30;3.00;;;;;;;20.94;59.14;97821.44;4953520;29;20235;-27
2023/05/08 02:31:48;;;;;;;3.73;3.23;;;;;;;20.86;59.22;97810.97;4938392;29;20200;-27
2023/05/08 02:34:15;;;;;;;3.47;3.17;;;;;;;20.94;59.05;97824.88;4937320;29;20200;-27
2023/05/08 02:36:42;;;;;;;3.07;2.87;;;;;;;20.86;59.66;97813.50;4953675;29;20204;-27
2023/05/08 02:39:10;;;;;;;2.90;2.70;;;;;;;20.77;59.15;97812.28;4900779;29;1089971;-27
2023/05/08 02:41:37;;;;;;;3.27;3.07;;;;;;;20.94;59.63;97839.34;4954814;29;20295;-27
2023/05/08 02:44:03;;;;;;;3.10;2.90;;;;;;;20.94;59.12;97842.78;4955811;28;20204;-27
2023/05/08 02:47:18;;;;;;;3.20;3.00;;;;;;;20.94;59.03;97837.66;4955655;28;20689;-27
2023/05/08 02:49:50;;;;;;;3.30;3.00;;;;;;;20.94;59.36;97831.66;4951585;28;20224;-27
2023/05/08 02:52:30;;;;;;;3.20;3.00;;;;;;;20.94;59.22;97840.22;4955631;28;20244;-28
2023/05/08 02:55:17;;;;;;;3.10;2.90;;;;;;;20.94;59.06;97842.78;4953673;28;20204;-27
2023/05/08 02:57:52;;;;;;;2.90;2.70;;;;;;;20.92;58.95;97839.28;4949752;29;20259;-28
2023/05/08 03:00:21;;;;;;;3.50;3.20;;;;;;;20.93;59.01;97841.00;4952008;28;20705;-28
2023/05/08 03:02:56;;;;;;;3.60;3.30;;;;;;;20.93;59.18;97837.59;4970285;28;20204;-27
2023/05/08 03:05:27;;;;;;;3.30;3.00;;;;;;;20.41;58.80;97754.75;4952990;28;20211;-27
2023/05/08 03:07:54;;;;;;;3.33;3.03;;;;;;;20.91;59.17;97840.09;4955393;29;20238;-28
2023/05/08 03:10:24;;;;;;;3.30;3.03;;;;;;;20.92;59.21;97844.38;4954225;28;20291;-27
2023/05/08 03:12:51;;;;;;;3.73;3.40;;;;;;;20.92;59.18;97843.50;4954361;29;20236;-27
2023/05/08 03:15:24;;;;;;;3.40;3.10;;;;;;;20.85;59.19;97829.66;4938314;29;20240;-28
2023/05/08 03:17:55;;;;;;;3.87;3.20;;;;;;;20.88;59.04;97837.44;4948548;29;20207;-28
2023/05/08 03:20:23;;;;;;;3.83;3.50;;;;;;;20.91;59.07;97837.56;4938611;29;20610;-28
2023/05/08 03:22:50;;;;;;;3.50;3.20;;;;;;;20.92;59.33;97838.41;4955289;28;20236;-28
2023/05/08 03:25:18;;;;;;;3.00;2.80;;;;;;;20.91;59.02;97840.09;4954109;29;20209;-27
2023/05/08 03:27:45;;;;;;;3.70;3.40;;;;;;;20.91;58.97;97826.44;4953763;29;20200;-27
2023/05/08 03:30:11;;;;;;;3.17;2.97;;;;;;;20.92;58.91;97829.06;4954980;28;20223;-27
2023/05/08 03:32:38;;;;;;;3.60;3.30;;;;;;;20.84;59.06;97809.16;4953600;28;20196;-28
2023/05/08 03:35:05;;;;;;;3.30;2.93;;;;;;;20.89;59.32;97821.28;4954245;29;20197;-27
2023/05/08 03:37:32;;;;;;;3.43;3.13;;;;;;;20.81;58.84;97809.06;4937633;29;20620;-27
2023/05/08 03:39:58;;;;;;;3.50;3.20;;;;;;;20.89;59.15;97823.84;4937850;29;20235;-28
2023/05/08 03:42:25;;;;;;;3.20;3.00;;;;;;;20.92;59.27;97825.63;4954505;28;20220;-27
2023/05/08 03:44:52;;;;;;;3.10;2.90;;;;;;;20.92;59.06;97841.84;4953853;29;20222;-27
2023/05/08 03:47:23;;;;;;;3.23;3.03;;;;;;;20.91;58.91;97835.00;4954639;28;20208;-28
2023/05/08 03:49:49;;;;;;;3.30;2.90;;;;;;;20.92;58.91;97839.28;4953521;28;20625;-27
2023/05/08 03:52:16;;;;;;;3.40;3.10;;;;;;;20.93;59.20;97837.59;4954484;28;20667;-27
2023/05/08 03:54:42;;;;;;;3.87;3.23;;;;;;;20.92;58.66;97839.28;4954876;28;20200;-27
2023/05/08 03:57:09;;;;;;;3.40;3.10;;;;;;;20.93;58.94;97847.81;4950809;28;20585;-27
2023/05/08 03:59:53;;;;;;;3.50;3.20;;;;;;;20.91;58.94;97846.88;4954223;28;20220;-27
2023/05/08 04:02:35;;;;;;;3.10;2.90;;;;;;;20.92;59.09;97844.38;4951203;29;20311;-28
2023/05/08 04:05:33;;;;;;;3.50;3.20;;;;;;;20.92;58.92;97849.50;4919118;29;20209;-27
2023/05/08 04:08:15;;;;;;;3.20;3.00;;;;;;;20.89;58.58;97844.28;4947647;29;20204;-27
2023/05/08 04:10:44;;;;;;;4.13;3.30;;;;;;;20.93;58.79;97858.91;4938255;29;20220;-28
2023/05/08 04:13:30;;;;;;;3.13;2.93;;;;;;;20.92;59.13;97848.63;4937591;29;20211;-28
2023/05/08 04:16:12;;;;;;;3.30;3.10;;;;;;;20.90;58.84;97852.81;4958687;28;20209;-27
2023/05/08 04:18:43;;;;;;;3.40;3.20;;;;;;;20.85;58.88;97855.22;4951590;29;20207;-27
2023/05/08 04:21:10;;;;;;;3.03;2.83;;;;;;;20.93;58.86;97870.81;4931849;29;20231;-28
2023/05/08 04:23:38;;;;;;;3.10;2.90;;;;;;;20.88;58.84;97865.53;4949423;29;20201;-27
2023/05/08 04:26:05;;;;;;;3.50;3.20;;;;;;;20.90;59.00;97863.88;4931816;29;20248;-27
2023/05/08 04:28:31;;;;;;;3.63;3.37;;;;;;;20.91;58.65;97867.34;4935949;28;20712;-27
2023/05/08 04:30:58;;;;;;;3.47;3.20;;;;;;;20.90;58.97;97873.25;4931417;29;20200;-27
2023/05/08 04:33:24;;;;;;;3.40;3.10;;;;;;;20.87;58.74;97863.78;4930923;29;20578;-28
2023/05/08 04:35:51;;;;;;;3.27;3.00;;;;;;;20.91;58.66;97880.97;4962239;28;20251;-27
2023/05/08 04:38:18;;;;;;;3.53;3.27;;;;;;;20.90;58.91;97869.00;4945967;29;20212;-27
2023/05/08 04:40:44;;;;;;;3.50;3.20;;;;;;;20.91;59.00;97877.53;4950626;28;20272;-27
2023/05/08 04:43:11;;;;;;;3.30;3.10;;;;;;;20.91;58.77;97886.09;4949393;28;20689;-27
2023/05/08 04:45:38;;;;;;;3.30;3.10;;;;;;;20.91;59.26;97882.66;4948065;29;20201;-27
2023/05/08 04:48:04;;;;;;;3.07;2.87;;;;;;;20.91;58.82;97887.75;4946585;28;20205;-27
2023/05/08 04:50:31;;;;;;;3.67;3.37;;;;;;;20.90;58.85;97886.03;4950445;28;20493;-27
2023/05/08 04:52:58;;;;;;;3.37;3.17;;;;;;;20.91;58.75;97891.22;4950875;29;20287;-28
2023/05/08 04:55:24;;;;;;;3.27;3.07;;;;;;;20.92;58.90;97889.50;4950359;28;20203;-28
2023/05/08 04:57:51;;;;;;;4.53;3.10;;;;;;;20.92;58.88;97898.03;4946421;28;20209;-27
2023/05/08 05:00:17;;;;;;;3.43;3.13;;;;;;;20.94;58.71;97898.97;4943844;28;20232;-28
2023/05/08 05:02:44;;;;;;;3.20;3.00;;;;;;;20.93;58.73;97901.47;4946642;29;20224;-27
2023/05/08 05:05:11;;;;;;;4.10;3.70;;;;;;;20.92;58.89;97903.16;4934016;28;20625;-27
2023/05/08 05:07:38;;;;;;;3.77;3.47;;;;;;;20.93;58.81;97906.59;4946583;29;20264;-27
2023/05/08 05:10:05;;;;;;;3.57;3.27;;;;;;;20.93;58.80;97902.31;4946065;28;20599;-27
2023/05/08 05:12:31;;;;;;;3.10;2.90;;;;;;;20.94;58.83;97910.88;4948876;28;20210;-27
2023/05/08 05:14:58;;;;;;;3.50;3.20;;;;;;;20.94;58.52;97909.22;4946617;29;20679;-28
2023/05/08 05:17:24;;;;;;;3.80;2.80;;;;;;;20.95;58.92;97915.19;4949549;28;20725;-28
2023/05/08 05:19:51;;;;;;;3.67;3.37;;;;;;;20.95;59.30;97916.06;4942900;28;20300;-28
2023/05/08 05:22:18;;;;;;;3.43;3.10;;;;;;;20.95;59.19;97918.63;4941206;29;20698;-27
2023/05/08 05:24:45;;;;;;;3.60;3.30;;;;;;;20.95;58.76;97916.06;4945815;28;20671;-27
2023/05/08 05:27:12;;;;;;;3.83;3.53;;;;;;;20.95;58.76;97926.31;4947356;28;20210;-27
2023/05/08 05:29:38;;;;;;;3.67;3.37;;;;;;;20.95;58.57;97916.06;4946394;28;20606;-27
2023/05/08 05:32:06;;;;;;;4.30;3.77;;;;;;;20.96;58.55;97934.84;4944583;28;20205;-28
2023/05/08 05:34:32;;;;;;;4.07;3.77;;;;;;;20.96;58.70;97922.06;4945648;29;20287;-27
2023/05/08 05:36:59;;;;;;;4.23;3.87;;;;;;;20.96;58.80;97929.72;4948581;28;20236;-28
2023/05/08 05:39:26;;;;;;;4.57;4.17;;;;;;;20.95;58.07;97925.41;4964921;23;20714;-33
2023/05/08 05:41:52;;;;;;;6.00;5.30;;;;;;;20.96;57.17;97938.25;4970825;28;20231;-29
2023/05/08 05:44:19;;;;;;;5.20;4.70;;;;;;;20.95;57.52;97938.19;4969892;28;20218;-30
2023/05/08 05:46:46;;;;;;;4.93;4.53;;;;;;;20.96;57.62;97935.69;4970066;28;20208;-31
2023/05/08 05:49:12;;;;;;;4.80;4.40;;;;;;;20.96;57.53;97933.13;4983219;28;20315;-32
2023/05/08 05:51:39;;;;;;;6.20;5.60;;;;;;;20.97;57.91;97936.56;4972010;28;20200;-31
2023/05/08 05:54:05;;;;;;;5.60;5.20;;;;;;;20.97;57.55;97934.91;4969469;28;20238;-29
2023/05/08 05:56:32;;;;;;;5.30;4.80;;;;;;;20.89;57.80;97922.59;4974341;28;21748;-30
2023/05/08 05:58:58;;;;;;;7.23;5.23;;;;;;;20.96;57.81;97943.34;4975456;28;20254;-29
2023/05/08 06:01:27;;;;;;;7.10;6.40;;;;;;;20.96;56.66;97942.50;4973339;28;20675;-34
2023/05/08 06:03:54;;;;;;;7.30;6.07;;;;;;;20.96;56.86;97950.19;4972488;28;20203;-29
2023/05/08 06:06:21;;;;;;;6.47;5.97;;;;;;;20.96;57.04;97943.34;4973863;28;20270;-30
2023/05/08 06:08:48;;;;;;;6.53;5.77;;;;;;;20.95;57.25;97951.84;4975522;28;20290;-31
2023/05/08 06:11:14;;;;;;;6.67;6.07;;;;;;;20.95;57.39;97946.75;4975564;28;20220;-29
2023/05/08 06:13:42;;;;;;;6.57;5.97;;;;;;;20.95;57.30;97943.31;4968002;28;20208;-29
2023/05/08 06:16:09;;;;;;;6.47;5.90;;;;;;;20.95;57.40;97945.84;4972761;28;20592;-29
2023/05/08 06:18:35;;;;;;;5.40;4.90;;;;;;;20.95;57.12;97943.31;4972022;28;20199;-31
2023/05/08 06:21:02;;;;;;;5.83;5.33;;;;;;;20.95;57.20;97946.75;4971896;28;20237;-29
2023/05/08 06:23:28;;;;;;;6.10;5.60;;;;;;;20.95;57.49;97938.19;4972100;28;20219;-30
2023/05/08 06:25:55;;;;;;;6.77;6.17;;;;;;;20.95;57.40;97941.63;4972569;28;20290;-29
2023/05/08 06:28:23;;;;;;;9.13;6.30;;;;;;;20.95;56.67;97948.41;4972715;28;20609;-32
2023/05/08 06:30:49;;;;;;;7.00;6.40;;;;;;;20.96;56.12;97957.84;4972572;28;20215;-30
2023/05/08 06:33:16;;;;;;;8.60;6.50;;;;;;;20.94;56.84;97952.63;4971554;28;20315;-30
2023/05/08 06:35:46;;;;;;;6.80;6.20;;;;;;;20.94;56.83;97957.75;4971757;28;20705;-29
2023/05/08 06:38:13;;;;;;;8.00;6.57;;;;;;;20.95;57.04;97956.06;4972184;28;20223;-31
2023/05/08 06:40:42;;;;;;;8.03;6.33;;;;;;;20.94;56.93;97961.97;4972824;28;20254;-29
2023/05/08 06:43:09;;;;;;;8.20;6.40;;;;;;;20.95;57.07;97961.19;4972110;28;20664;-30
2023/05/08 06:45:35;;;;;;;7.67;6.50;;;;;;;20.91;57.43;97960.19;4969853;28;20207;-29
2023/05/08 06:48:02;;;;;;;7.00;6.40;;;;;;;20.94;56.98;97965.41;4971717;28;20210;-29
2023/05/08 06:50:30;;;;;;;6.60;6.00;;;;;;;20.95;57.57;97963.75;4972666;28;20228;-29
2023/05/08 06:52:56;;;;;;;6.33;5.83;;;;;;;20.93;57.31;97961.09;4970918;28;20230;-29
2023/05/08 06:55:23;;;;;;;7.70;6.30;;;;;;;20.94;57.69;97962.88;4971771;28;20745;-32
2023/05/08 06:57:49;;;;;;;6.30;5.70;;;;;;;20.96;57.36;97966.34;4972092;28;20242;-39
2023/05/08 07:00:16;;;;;;;6.17;5.67;;;;;;;20.97;57.45;97969.78;4970669;28;20345;-29
2023/05/08 07:02:43;;;;;;;6.30;5.80;;;;;;;20.96;57.49;97968.91;4971839;28;20302;-30
2023/05/08 07:05:09;;;;;;;6.03;5.53;;;;;;;20.97;57.33;97987.69;4972193;28;20203;-34
2023/05/08 07:07:36;;;;;;;5.90;5.40;;;;;;;20.97;57.36;97973.22;4970771;28;20203;-35
2023/05/08 07:10:03;;;;;;;6.00;5.40;;;;;;;20.97;57.44;97972.34;4971377;28;20259;-32
2023/05/08 07:12:33;;;;;;;5.80;5.30;;;;;;;20.96;57.49;97976.56;4971422;28;20262;-29
2023/05/08 07:14:59;;;;;;;8.10;5.80;;;;;;;20.96;57.53;97979.13;4971378;28;20202;-29
2023/05/08 07:17:40;;;;;;;6.33;5.83;;;;;;;20.97;57.16;97980.00;4970693;28;20258;-30
2023/05/08 07:20:07;;;;;;;5.93;5.43;;;;;;;20.96;57.45;97978.28;4971647;28;20220;-39
2023/05/08 07:22:34;;;;;;;6.50;5.47;;;;;;;20.96;57.49;97979.13;4971072;28;20307;-32
2023/05/08 07:25:01;;;;;;;5.77;5.27;;;;;;;20.94;57.53;97978.19;4972372;28;20199;-31
2023/05/08 07:27:27;;;;;;;5.73;5.23;;;;;;;20.97;57.41;97993.69;4970940;28;20242;-31
2023/05/08 07:29:54;;;;;;;7.77;5.37;;;;;;;20.96;58.24;97981.69;4970950;28;20231;-36
2023/05/08 07:32:20;;;;;;;5.60;5.10;;;;;;;20.93;57.49;97984.09;4970737;28;20617;-34
2023/05/08 07:34:47;;;;;;;5.73;5.23;;;;;;;20.97;57.71;97980.91;4970229;28;20204;-33
2023/05/08 07:37:14;;;;;;;5.17;4.77;;;;;;;20.98;57.91;97986.84;4971129;28;20203;-30
2023/05/08 07:39:41;;;;;;;6.17;5.63;;;;;;;20.97;57.59;97983.44;4970922;28;20231;-32
2023/05/08 07:42:07;;;;;;;5.17;4.77;;;;;;;20.97;57.65;97990.22;4971296;28;20255;-32
2023/05/08 07:44:34;;;;;;;5.50;5.00;;;;;;;20.97;57.49;97978.34;4971079;28;20204;-31
2023/05/08 07:47:12;;;;;;;6.07;4.70;;;;;;;20.98;57.75;97979.19;4970937;28;20235;-30
2023/05/08 07:49:39;;;;;;;5.30;4.90;;;;;;;20.97;57.89;97986.00;4969528;28;20243;-29
2023/05/08 07:52:05;;;;;;;4.70;4.30;;;;;;;20.97;57.88;97973.22;4965646;28;20294;-29
2023/05/08 07:54:32;;;;;;;5.50;5.00;;;;;;;20.99;57.68;97989.47;4970508;28;20315;-29
2023/05/08 07:56:59;;;;;;;10.20;4.80;;;;;;;20.99;57.82;97979.25;4971187;28;20228;-30
2023/05/08 07:59:25;;;;;;;5.23;4.80;;;;;;;20.98;57.79;97977.53;4970128;28;20231;-33
2023/05/08 08:01:52;;;;;;;4.77;4.37;;;;;;;20.99;57.77;97975.84;4965558;28;20207;-31
2023/05/08 08:04:18;;;;;;;5.40;4.90;;;;;;;20.99;57.73;97975.84;4969633;28;20270;-36
2023/05/08 08:06:45;;;;;;;4.90;4.50;;;;;;;20.99;57.67;97975.84;4969857;28;20226;-30
2023/05/08 08:09:11;;;;;;;5.20;4.70;;;;;;;20.98;57.73;97980.06;4969457;28;20231;-29
2023/05/08 08:11:38;;;;;;;5.13;4.73;;;;;;;20.99;57.64;97975.84;4969761;28;20200;-30
2023/05/08 08:14:05;;;;;;;5.20;4.80;;;;;;;20.99;57.65;97975.84;4968362;28;20290;-30
2023/05/08 08:16:31;;;;;;;5.40;4.90;;;;;;;21.00;57.58;97981.00;4969241;28;20298;-30
2023/05/08 08:18:58;;;;;;;5.03;4.63;;;;;;;20.85;57.70;97952.28;4968486;28;20622;-30
2023/05/08 08:21:25;;;;;;;5.03;4.63;;;;;;;21.00;58.05;97975.03;4969158;28;20242;-37
2023/05/08 08:23:52;;;;;;;4.23;3.83;;;;;;;20.99;57.74;97978.41;4968916;28;20334;-30
2023/05/08 08:26:18;;;;;;;4.70;4.30;;;;;;;20.99;57.73;97984.38;4966125;28;20210;-30
2023/05/08 08:28:45;;;;;;;5.00;4.50;;;;;;;20.99;57.65;97976.69;4970089;28;20227;-30
2023/05/08 08:31:12;;;;;;;4.80;4.40;;;;;;;21.00;57.56;97978.47;4969552;28;20517;-29
2023/05/08 08:33:38;;;;;;;4.87;4.47;;;;;;;21.00;57.96;97975.03;4969458;28;20223;-29
2023/05/08 08:36:11;;;;;;;4.50;4.10;;;;;;;20.99;57.83;97971.59;4969721;28;20238;-30
2023/05/08 08:38:38;;;;;;;5.00;4.60;;;;;;;20.99;57.85;97974.13;4967578;28;20211;-31
2023/05/08 08:41:04;;;;;;;4.90;4.50;;;;;;;21.00;57.72;97975.03;4968832;28;20241;-30
2023/05/08 08:43:31;;;;;;;4.50;4.10;;;;;;;21.00;57.70;97975.91;4967554;28;20234;-30
2023/05/08 08:46:01;;;;;;;4.40;4.00;;;;;;;20.94;57.79;97969.63;4969226;28;20211;-33
2023/05/08 08:48:27;;;;;;;4.33;4.03;;;;;;;21.01;57.83;97974.19;4967660;28;20286;-30
2023/05/08 08:50:58;;;;;;;4.77;4.37;;;;;;;21.00;57.64;97975.91;4967814;28;20744;-34
2023/05/08 08:53:25;;;;;;;4.20;3.90;;;;;;;21.01;57.64;97975.09;4959308;28;20218;-33
2023/05/08 08:55:54;;;;;;;4.73;4.33;;;;;;;21.01;57.62;97975.09;4967619;28;20211;-29
2023/05/08 08:58:31;;;;;;;4.60;4.20;;;;;;;20.99;57.62;97974.13;4965153;28;20765;-32
2023/05/08 09:00:59;;;;;;;4.40;4.10;;;;;;;20.96;57.67;97965.50;4965931;28;20226;-32
2023/05/08 09:03:26;;;;;;;4.47;4.07;;;;;;;21.01;57.40;97969.09;4966115;28;20690;-32
2023/05/08 09:05:52;;;;;;;4.47;4.07;;;;;;;21.00;57.62;97963.13;4966820;28;20231;-30
2023/05/08 09:08:19;;;;;;;4.33;4.03;;;;;;;21.00;57.55;97965.69;4962918;28;20686;-31
2023/05/08 09:10:46;;;;;;;4.33;4.03;;;;;;;21.00;57.72;97970.78;4966575;28;20263;-34
2023/05/08 09:13:12;;;;;;;4.53;4.13;;;;;;;21.01;57.69;97963.97;4967405;28;20306;-30
2023/05/08 09:15:39;;;;;;;4.37;3.97;;;;;;;21.01;57.75;97966.53;4965187;28;20208;-31
2023/05/08 09:18:06;;;;;;;4.20;3.90;;;;;;;21.00;57.78;97958.03;4967110;28;20250;-30
2023/05/08 09:20:32;;;;;;;4.30;3.93;;;;;;;21.01;57.75;97971.63;4967194;28;20310;-29
2023/05/08 09:23:00;;;;;;;4.20;3.80;;;;;;;21.01;57.71;97969.97;4950562;28;20266;-30
2023/05/08 09:25:43;;;;;;;4.50;4.10;;;;;;;21.01;57.75;97952.09;4968239;28;20327;-31
2023/05/08 09:28:25;;;;;;;4.57;4.17;;;;;;;21.01;57.79;97959.75;4967171;28;20207;-30
2023/05/08 09:30:56;;;;;;;3.90;3.60;;;;;;;21.01;57.70;97956.31;4967772;28;20278;-29
2023/05/08 09:33:27;;;;;;;8.40;3.90;;;;;;;21.01;57.68;97957.19;4966281;28;20318;-29
2023/05/08 09:35:54;;;;;;;4.33;3.97;;;;;;;21.02;57.63;97968.28;4966951;28;20247;-36
2023/05/08 09:38:38;;;;;;;4.23;3.90;;;;;;;21.02;57.65;97968.28;4967179;28;20234;-32
2023/05/08 09:41:15;;;;;;;4.30;3.90;;;;;;;21.01;57.92;97971.63;4966146;28;20231;-30
2023/05/08 09:43:43;;;;;;;4.60;4.23;;;;;;;21.01;57.63;97969.97;4966752;28;20233;-29
2023/05/08 09:46:20;;;;;;;6.33;4.30;;;;;;;21.02;57.71;97970.84;4967626;28;20226;-39
2023/05/08 09:48:47;;;;;;;5.03;4.53;;;;;;;21.02;57.56;97973.41;4964980;28;20199;-30
2023/05/08 09:51:13;;;;;;;5.87;4.53;;;;;;;21.02;57.41;97963.19;4966233;28;20229;-32
2023/05/08 09:53:40;;;;;;;4.93;4.30;;;;;;;21.03;56.98;97967.47;4966061;28;20629;-34
2023/05/08 09:56:07;;;;;;;5.27;4.77;;;;;;;21.02;56.95;97964.03;4967724;28;20526;-35
2023/05/08 09:58:43;;;;;;;4.80;4.40;;;;;;;21.02;56.72;97968.28;4966582;28;20211;-30
2023/05/08 10:01:29;;;;;;;4.43;4.03;;;;;;;21.01;56.94;97969.97;4967108;28;20612;-35
2023/05/08 10:03:56;;;;;;;4.73;4.33;;;;;;;21.01;56.99;97964.84;4967405;28;20308;-29
2023/05/08 10:06:23;;;;;;;4.67;4.30;;;;;;;21.01;57.01;97954.63;4967484;28;20588;-30
2023/05/08 10:09:10;;;;;;;5.00;4.50;;;;;;;21.03;57.00;97970.03;4965760;28;20291;-29
2023/05/08 10:11:38;;;;;;;5.03;4.37;;;;;;;21.02;56.96;97969.16;4966128;28;20714;-30
2023/05/08 10:14:04;;;;;;;5.10;4.60;;;;;;;21.05;56.98;97965.84;4966865;28;20227;-33
2023/05/08 10:16:36;;;;;;;4.70;4.30;;;;;;;20.99;57.16;97956.25;4966993;28;20204;-32
2023/05/08 10:19:04;;;;;;;4.60;4.20;;;;;;;21.04;57.41;97961.53;4948990;28;20263;-29
2023/05/08 10:21:34;;;;;;;4.47;4.17;;;;;;;21.05;57.16;97964.16;4965585;28;20206;-32
2023/05/08 10:24:00;;;;;;;6.10;4.80;;;;;;;21.00;57.19;97958.03;4967164;28;20230;-37
2023/05/08 10:26:29;;;;;;;6.70;4.33;;;;;;;21.06;57.14;97970.16;4948435;28;20203;-33
2023/05/08 10:28:57;;;;;;;5.37;4.37;;;;;;;21.06;57.14;97962.47;4967312;28;20561;-29
2023/05/08 10:31:24;;;;;;;4.77;4.37;;;;;;;21.05;57.29;97971.81;4966290;28;20208;-31
2023/05/08 10:33:54;;;;;;;5.03;4.60;;;;;;;21.06;57.19;97978.69;4967240;28;20628;-29
2023/05/08 10:36:22;;;;;;;5.23;4.83;;;;;;;21.06;57.13;97968.47;4964649;28;20203;-38
2023/05/08 10:38:49;;;;;;;4.70;4.30;;;;;;;21.07;57.37;97961.66;4966825;28;20235;-33
2023/05/08 10:41:15;;;;;;;4.50;4.20;;;;;;;21.07;57.36;97964.22;4967079;28;20246;-32
2023/05/08 10:43:42;;;;;;;4.93;4.53;;;;;;;21.07;57.42;97954.88;4967704;28;20321;-30
2023/05/08 10:46:47;;;;;;;4.70;4.30;;;;;;;21.07;57.34;97961.66;4970718;28;20227;-32
2023/05/08 10:49:42;;;;;;;4.63;4.23;;;;;;;21.08;57.38;97956.59;4970384;28;20219;-32
2023/05/08 10:52:32;;;;;;;4.20;3.90;;;;;;;21.08;57.45;97948.09;4962138;28;20211;-38
2023/05/08 10:55:03;;;;;;;4.57;4.27;;;;;;;21.07;57.26;97946.31;4941502;28;20290;-30
2023/05/08 10:57:30;;;;;;;4.17;3.87;;;;;;;21.08;57.45;97948.09;4969171;28;21562;-32
2023/05/08 10:59:57;;;;;;;4.30;4.00;;;;;;;21.08;57.87;97933.59;4969192;28;20251;-32
2023/05/08 11:02:31;;;;;;;4.63;4.33;;;;;;;21.08;57.33;97933.59;4969128;28;20227;-29
2023/05/08 11:05:15;;;;;;;4.40;3.83;;;;;;;21.07;57.33;97934.41;4969396;28;20207;-32
2023/05/08 11:07:58;;;;;;;4.23;3.93;;;;;;;21.06;57.17;97937.81;4968492;28;20206;-31
2023/05/08 11:10:31;;;;;;;4.77;4.37;;;;;;;21.08;57.20;97936.16;4969872;28;20301;-29
2023/05/08 11:12:57;;;;;;;4.73;4.33;;;;;;;21.08;57.26;97935.31;4967468;28;20630;-30
2023/05/08 11:15:35;;;;;;;4.60;4.20;;;;;;;21.07;57.39;97928.44;4952584;28;20208;-29
2023/05/08 11:18:08;;;;;;;4.17;3.87;;;;;;;21.08;57.39;97936.16;4970286;28;20207;-38
2023/05/08 11:20:41;;;;;;;4.70;4.30;;;;;;;21.08;57.33;97930.19;4967988;28;20297;-30
2023/05/08 11:23:24;;;;;;;4.17;3.87;;;;;;;21.09;57.26;97934.47;4969901;28;20258;-31
2023/05/08 11:26:10;;;;;;;4.00;3.60;;;;;;;21.08;57.51;97927.63;4969008;28;20701;-30
2023/05/08 11:28:37;;;;;;;4.23;3.90;;;;;;;21.10;57.94;97929.44;4970306;28;20234;-31
2023/05/08 11:31:04;;;;;;;4.37;3.97;;;;;;;21.11;57.75;97925.19;4970169;28;20232;-33
2023/05/08 11:33:32;;;;;;;4.20;3.90;;;;;;;21.11;57.85;97923.50;4969394;28;20208;-29
2023/05/08 11:36:14;;;;;;;4.30;3.90;;;;;;;21.12;57.52;97924.38;4968788;28;20200;-32
2023/05/08 11:38:42;;;;;;;4.40;4.00;;;;;;;21.12;57.60;97921.81;4967797;28;20262;-35
2023/05/08 11:41:22;;;;;;;4.50;4.10;;;;;;;21.12;57.54;97924.38;4969311;28;20231;-27
2023/05/08 11:44:03;;;;;;;4.10;3.80;;;;;;;21.11;57.65;97920.94;4965585;28;20258;-27
2023/05/08 11:46:41;;;;;;;4.23;3.83;;;;;;;21.12;57.52;97921.81;4966317;28;20218;-27